createdAt,value
2023-05-08T00:00:55.822Z,69.99
2023-05-08T00:01:55.844Z,69.32
2023-05-08T00:02:55.908Z,69.22
2023-05-08T00:03:56.084Z,68.92
2023-05-08T00:04:56.015Z,68.75
2023-05-08T00:05:55.980Z,68.08
2023-05-08T00:06:55.917Z,67.87
2023-05-08T00:07:55.950Z,68.34
2023-05-08T00:08:56.045Z,68.88
2023-05-08T00:09:56.046Z,69.18
2023-05-08T00:10:56.154Z,69.04
2023-05-08T00:11:56.245Z,69.38
2023-05-08T00:12:56.224Z,69.76
2023-05-08T00:13:56.263Z,69.02
2023-05-08T00:14:56.343Z,69.59
2023-05-08T00:15:56.405Z,69.69
2023-05-08T00:16:56.447Z,70.11
2023-05-08T00:17:56.512Z,70.00
2023-05-08T00:18:56.514Z,70.59
2023-05-08T00:19:56.527Z,70.74
2023-05-08T00:20:57.150Z,71.22
2023-05-08T00:21:56.661Z,70.25
2023-05-08T00:22:56.642Z,69.85
2023-05-08T00:23:56.706Z,70.47
2023-05-08T00:24:56.716Z,69.78
2023-05-08T00:25:56.829Z,70.15
2023-05-08T00:26:56.847Z,70.22
2023-05-08T00:27:56.884Z,70.55
2023-05-08T00:28:56.995Z,70.79
2023-05-08T00:29:57.123Z,70.85
2023-05-08T00:30:57.050Z,71.84
2023-05-08T00:31:57.134Z,71.64
2023-05-08T00:32:57.223Z,72.28
2023-05-08T00:33:57.134Z,71.47
2023-05-08T00:34:57.249Z,70.42
2023-05-08T00:35:57.294Z,70.39
2023-05-08T00:36:57.294Z,69.98
2023-05-08T00:37:57.362Z,69.69
2023-05-08T00:38:57.341Z,69.29
2023-05-08T00:39:57.433Z,68.54
2023-05-08T00:40:57.434Z,68.75
2023-05-08T00:41:57.478Z,69.15
2023-05-08T00:42:57.518Z,69.40
2023-05-08T00:43:57.540Z,68.87
2023-05-08T00:44:57.596Z,68.77
2023-05-08T00:45:57.626Z,68.48
2023-05-08T00:46:57.636Z,67.88
2023-05-08T00:47:57.685Z,68.42
2023-05-08T00:48:57.689Z,69.44
2023-05-08T00:49:57.709Z,68.63
2023-05-08T00:50:57.683Z,68.40
2023-05-08T00:51:57.720Z,68.41
2023-05-08T00:52:57.710Z,68.23
2023-05-08T00:53:57.795Z,68.21
2023-05-08T00:54:57.936Z,68.25
2023-05-08T00:55:57.879Z,68.55
2023-05-08T00:56:57.996Z,68.86
2023-05-08T00:57:57.957Z,68.90
2023-05-08T00:58:58.025Z,69.71
2023-05-08T00:59:58.063Z,69.50
2023-05-08T01:00:58.064Z,69.40
2023-05-08T01:01:58.141Z,68.72
2023-05-08T01:02:58.157Z,68.08
2023-05-08T01:03:58.181Z,67.89
2023-05-08T01:04:58.287Z,67.57
2023-05-08T01:06:00.225Z,67.34
2023-05-08T01:06:58.275Z,66.73
2023-05-08T01:07:58.304Z,67.08
2023-05-08T01:08:58.317Z,66.49
2023-05-08T01:09:58.320Z,66.52
2023-05-08T01:10:58.392Z,65.79
2023-05-08T01:11:58.436Z,65.52
2023-05-08T01:12:58.488Z,66.15
2023-05-08T01:13:58.558Z,65.90
2023-05-08T01:14:58.527Z,66.33
2023-05-08T01:15:59.172Z,65.88
2023-05-08T01:16:58.617Z,66.01
2023-05-08T01:17:58.636Z,66.67
2023-05-08T01:18:58.598Z,66.26
2023-05-08T01:19:58.664Z,65.98
2023-05-08T01:20:58.674Z,65.66
2023-05-08T01:21:58.712Z,65.38
2023-05-08T01:22:58.736Z,65.06
2023-05-08T01:23:58.775Z,64.69
2023-05-08T01:24:58.809Z,65.75
2023-05-08T01:25:58.897Z,65.08
2023-05-08T01:26:58.914Z,65.37
2023-05-08T01:27:58.847Z,65.68
2023-05-08T01:28:58.918Z,64.96
2023-05-08T01:29:58.922Z,64.72
2023-05-08T01:30:58.944Z,65.05
2023-05-08T01:31:58.988Z,65.24
2023-05-08T01:32:59.083Z,64.99
2023-05-08T01:33:59.128Z,66.06
2023-05-08T01:34:59.120Z,65.77
2023-05-08T01:35:59.138Z,66.06
2023-05-08T01:36:59.668Z,66.55
2023-05-08T01:37:59.246Z,66.01
2023-05-08T01:38:59.259Z,65.76
2023-05-08T01:39:59.331Z,65.58
2023-05-08T01:40:59.283Z,65.70
2023-05-08T01:41:59.310Z,65.77
2023-05-08T01:42:59.373Z,65.74
2023-05-08T01:43:59.412Z,66.02
2023-05-08T01:44:59.416Z,65.70
2023-05-08T01:45:59.540Z,65.29
2023-05-08T01:46:59.534Z,65.56
2023-05-08T01:47:59.629Z,65.00
2023-05-08T01:49:00.178Z,64.79
2023-05-08T01:49:59.580Z,64.50
2023-05-08T01:50:59.570Z,64.29
2023-05-08T01:51:59.589Z,64.00
2023-05-08T01:52:59.621Z,63.93
2023-05-08T01:53:59.674Z,63.54
2023-05-08T01:54:59.707Z,63.31
2023-05-08T01:55:59.716Z,63.46
2023-05-08T01:56:59.752Z,63.39
2023-05-08T01:57:59.775Z,63.09
2023-05-08T01:58:59.782Z,63.46
2023-05-08T01:59:59.826Z,63.40
2023-05-08T02:00:59.929Z,62.90
2023-05-08T02:02:00.242Z,62.94
2023-05-08T02:02:59.916Z,62.84
2023-05-08T02:03:59.922Z,63.47
2023-05-08T02:04:59.970Z,62.87
2023-05-08T02:05:59.938Z,63.89
2023-05-08T02:07:00.011Z,63.33
2023-05-08T02:07:59.993Z,63.20
2023-05-08T02:09:00.011Z,63.60
2023-05-08T02:10:00.089Z,63.95
2023-05-08T02:11:00.064Z,64.16
2023-05-08T02:12:00.121Z,63.89
2023-05-08T02:13:00.176Z,63.70
2023-05-08T02:14:00.148Z,64.01
2023-05-08T02:15:00.145Z,64.37
2023-05-08T02:16:00.196Z,65.51
2023-05-08T02:17:01.194Z,65.98
2023-05-08T02:18:00.306Z,66.77
2023-05-08T02:19:00.267Z,66.17
2023-05-08T02:20:00.297Z,66.56
2023-05-08T02:21:00.292Z,66.09
2023-05-08T02:22:00.409Z,66.34
2023-05-08T02:23:00.332Z,65.87
2023-05-08T02:24:00.354Z,65.62
2023-05-08T02:25:00.376Z,65.71
2023-05-08T02:26:00.424Z,65.46
2023-05-08T02:27:00.473Z,64.87
2023-05-08T02:28:00.488Z,64.87
2023-05-08T02:29:00.522Z,64.70
2023-05-08T02:30:00.599Z,64.49
2023-05-08T02:31:00.575Z,64.55
2023-05-08T02:32:00.627Z,65.04
2023-05-08T02:33:01.011Z,65.53
2023-05-08T02:34:00.677Z,65.20
2023-05-08T02:35:03.500Z,66.11
2023-05-08T02:36:00.701Z,65.35
2023-05-08T02:37:00.707Z,65.90
2023-05-08T02:38:00.709Z,65.62
2023-05-08T02:39:00.698Z,65.78
2023-05-08T02:40:00.713Z,65.77
2023-05-08T02:41:00.716Z,65.82
2023-05-08T02:42:00.707Z,65.68
2023-05-08T02:43:00.681Z,66.07
2023-05-08T02:44:00.632Z,65.61
2023-05-08T02:45:00.652Z,65.30
2023-05-08T02:46:00.737Z,65.33
2023-05-08T02:47:00.655Z,66.13
2023-05-08T02:48:00.687Z,65.82
2023-05-08T02:49:00.614Z,65.92
2023-05-08T02:50:00.680Z,65.74
2023-05-08T02:51:00.620Z,65.44
2023-05-08T02:52:00.614Z,65.51
2023-05-08T02:53:00.604Z,65.20
2023-05-08T02:54:00.555Z,65.52
2023-05-08T02:55:00.723Z,65.29
2023-05-08T02:56:00.582Z,65.19
2023-05-08T02:57:00.565Z,65.88
2023-05-08T02:58:00.591Z,66.14
2023-05-08T02:59:00.660Z,66.38
2023-05-08T03:00:00.611Z,67.26
2023-05-08T03:01:00.651Z,66.78
2023-05-08T03:02:00.557Z,66.80
2023-05-08T03:03:00.595Z,67.10
2023-05-08T03:04:00.596Z,66.98
2023-05-08T03:05:00.501Z,67.09
2023-05-08T03:06:00.581Z,67.25
2023-05-08T03:07:00.530Z,67.35
2023-05-08T03:08:00.496Z,67.55
2023-05-08T03:09:00.476Z,67.74
2023-05-08T03:10:00.504Z,68.14
2023-05-08T03:11:00.467Z,67.79
2023-05-08T03:12:00.693Z,67.94
2023-05-08T03:13:00.535Z,68.87
2023-05-08T03:14:00.524Z,69.08
2023-05-08T03:15:00.559Z,69.29
2023-05-08T03:16:00.486Z,69.02
2023-05-08T03:17:00.422Z,69.57
2023-05-08T03:18:00.482Z,69.00
2023-05-08T03:19:00.408Z,69.02
2023-05-08T03:20:00.427Z,69.17
2023-05-08T03:21:00.418Z,69.14
2023-05-08T03:22:00.409Z,68.91
2023-05-08T03:23:00.376Z,69.78
2023-05-08T03:24:00.361Z,70.62
2023-05-08T03:25:00.392Z,70.55
2023-05-08T03:26:00.354Z,70.55
2023-05-08T03:27:00.350Z,69.77
2023-05-08T03:28:00.379Z,70.05
2023-05-08T03:29:00.344Z,70.19
2023-05-08T03:30:00.362Z,70.00
2023-05-08T03:31:00.356Z,69.92
2023-05-08T03:32:00.396Z,69.47
2023-05-08T03:33:00.459Z,69.69
2023-05-08T03:34:00.446Z,69.41
2023-05-08T03:35:00.435Z,69.67
2023-05-08T03:36:01.228Z,71.26
2023-05-08T03:37:00.504Z,70.83
2023-05-08T03:38:00.525Z,70.20
2023-05-08T03:39:00.483Z,70.52
2023-05-08T03:40:00.491Z,70.65
2023-05-08T03:41:00.558Z,70.31
2023-05-08T03:42:00.579Z,70.48
2023-05-08T03:43:00.559Z,69.87
2023-05-08T03:44:00.606Z,70.27
2023-05-08T03:45:00.580Z,70.45
2023-05-08T03:46:00.606Z,70.44
2023-05-08T03:47:00.705Z,70.30
2023-05-08T03:48:00.719Z,69.78
2023-05-08T03:49:00.672Z,69.82
2023-05-08T03:50:00.718Z,69.42
2023-05-08T03:51:00.744Z,69.79
2023-05-08T03:52:00.764Z,69.41
2023-05-08T03:53:00.783Z,69.56
2023-05-08T03:54:00.854Z,69.72
2023-05-08T03:55:00.875Z,68.65
2023-05-08T03:56:00.960Z,68.36
2023-05-08T03:57:00.956Z,67.62
2023-05-08T03:58:01.008Z,67.23
2023-05-08T03:59:01.075Z,67.08
2023-05-08T04:00:01.186Z,66.73
2023-05-08T04:01:01.142Z,66.35
2023-05-08T04:02:01.266Z,66.61
2023-05-08T04:03:01.262Z,66.40
2023-05-08T04:04:01.194Z,66.37
2023-05-08T04:05:01.137Z,65.80
2023-05-08T04:06:01.245Z,65.79
2023-05-08T04:07:01.215Z,65.96
2023-05-08T04:08:01.267Z,66.58
2023-05-08T04:09:01.360Z,66.42
2023-05-08T04:10:01.377Z,65.80
2023-05-08T04:11:01.436Z,65.64
2023-05-08T04:12:01.483Z,66.30
2023-05-08T04:13:01.612Z,65.79
2023-05-08T04:14:01.540Z,66.61
2023-05-08T04:15:01.642Z,65.93
2023-05-08T04:16:01.678Z,65.72
2023-05-08T04:17:01.785Z,65.93
2023-05-08T04:18:01.805Z,65.55
2023-05-08T04:19:01.785Z,65.02
2023-05-08T04:20:01.894Z,64.83
2023-05-08T04:21:01.884Z,64.77
2023-05-08T04:22:01.961Z,64.67
2023-05-08T04:23:01.966Z,64.96
2023-05-08T04:24:02.039Z,66.16
2023-05-08T04:25:02.060Z,65.28
2023-05-08T04:26:03.657Z,64.96
2023-05-08T04:27:02.042Z,65.35
2023-05-08T04:28:02.009Z,65.56
2023-05-08T04:29:02.037Z,64.98
2023-05-08T04:30:02.010Z,64.90
2023-05-08T04:31:02.005Z,64.84
2023-05-08T04:32:02.113Z,64.47
2023-05-08T04:33:02.069Z,64.60
2023-05-08T04:34:01.976Z,64.80
2023-05-08T04:35:02.249Z,64.67
2023-05-08T04:36:01.987Z,65.59
2023-05-08T04:37:02.024Z,65.67
2023-05-08T04:38:01.954Z,66.20
2023-05-08T04:39:01.958Z,65.29
2023-05-08T04:40:01.972Z,64.83
2023-05-08T04:41:01.980Z,64.88
2023-05-08T04:42:01.961Z,64.93
2023-05-08T04:43:01.933Z,65.24
2023-05-08T04:44:01.909Z,64.87
2023-05-08T04:45:01.925Z,64.57
2023-05-08T04:46:01.943Z,64.72
2023-05-08T04:47:01.973Z,65.57
2023-05-08T04:48:01.889Z,64.84
2023-05-08T04:49:01.902Z,64.60
2023-05-08T04:50:03.048Z,64.83
2023-05-08T04:51:01.871Z,64.34
2023-05-08T04:52:01.850Z,64.30
2023-05-08T04:53:01.883Z,63.76
2023-05-08T04:54:01.837Z,63.40
2023-05-08T04:55:01.843Z,63.98
2023-05-08T04:56:01.885Z,63.98
2023-05-08T04:57:01.895Z,64.17
2023-05-08T04:58:01.839Z,64.52
2023-05-08T04:59:01.823Z,64.62
2023-05-08T05:00:02.707Z,64.16
2023-05-08T05:01:01.892Z,64.12
2023-05-08T05:02:01.933Z,64.26
2023-05-08T05:03:01.860Z,64.28
2023-05-08T05:04:01.840Z,63.75
2023-05-08T05:05:01.833Z,64.46
2023-05-08T05:06:01.754Z,63.91
2023-05-08T05:07:01.762Z,63.70
2023-05-08T05:08:01.830Z,63.29
2023-05-08T05:09:01.765Z,63.16
2023-05-08T05:10:01.740Z,63.64
2023-05-08T05:11:01.740Z,64.37
2023-05-08T05:12:01.751Z,64.09
2023-05-08T05:13:01.765Z,63.53
2023-05-08T05:14:01.799Z,63.39
2023-05-08T05:15:01.769Z,63.17
2023-05-08T05:16:02.314Z,63.10
2023-05-08T05:17:01.702Z,62.52
2023-05-08T05:18:01.750Z,62.67
2023-05-08T05:19:01.743Z,62.57
2023-05-08T05:20:01.687Z,62.52
2023-05-08T05:21:01.764Z,63.99
2023-05-08T05:22:01.775Z,63.28
2023-05-08T05:23:01.806Z,64.17
2023-05-08T05:24:01.778Z,64.29
2023-05-08T05:25:02.236Z,64.26
2023-05-08T05:26:01.853Z,63.65
2023-05-08T05:27:01.997Z,63.03
2023-05-08T05:28:01.965Z,64.82
2023-05-08T05:29:02.027Z,64.31
2023-05-08T05:30:02.109Z,64.36
2023-05-08T05:31:02.860Z,65.02
2023-05-08T05:32:02.308Z,64.65
2023-05-08T05:33:02.796Z,65.00
2023-05-08T05:34:02.287Z,64.78
2023-05-08T05:35:02.241Z,65.58
2023-05-08T05:36:02.270Z,64.48
2023-05-08T05:37:02.321Z,64.38
2023-05-08T05:38:02.752Z,64.68
2023-05-08T05:39:02.459Z,64.59
2023-05-08T05:40:02.397Z,64.37
2023-05-08T05:41:02.404Z,63.87
2023-05-08T05:42:02.445Z,64.34
2023-05-08T05:43:02.565Z,63.97
2023-05-08T05:44:02.526Z,64.50
2023-05-08T05:45:02.548Z,64.05
2023-05-08T05:46:02.597Z,64.30
2023-05-08T05:47:02.648Z,63.58
2023-05-08T05:48:02.637Z,63.64
2023-05-08T05:49:02.671Z,64.49
2023-05-08T05:50:04.387Z,64.03
2023-05-08T05:51:02.764Z,64.07
2023-05-08T05:52:02.792Z,63.24
2023-05-08T05:53:02.853Z,63.46
2023-05-08T05:54:02.901Z,64.04
2023-05-08T05:55:03.291Z,63.95
2023-05-08T05:56:02.860Z,63.61
2023-05-08T05:57:02.998Z,62.91
2023-05-08T05:58:02.950Z,64.18
2023-05-08T05:59:02.973Z,64.40
2023-05-08T06:00:03.231Z,65.87
2023-05-08T06:01:03.048Z,66.30
2023-05-08T06:02:03.134Z,65.90
2023-05-08T06:03:03.936Z,65.80
2023-05-08T06:04:03.382Z,66.46
2023-05-08T06:05:03.253Z,66.13
2023-05-08T06:06:05.369Z,66.24
2023-05-08T06:07:03.281Z,66.16
2023-05-08T06:08:03.349Z,65.62
2023-05-08T06:09:03.413Z,66.40
2023-05-08T06:10:03.449Z,66.35
2023-05-08T06:11:03.522Z,65.80
2023-05-08T06:12:03.483Z,66.38
2023-05-08T06:13:03.588Z,66.51
2023-05-08T06:14:03.540Z,66.19
2023-05-08T06:15:03.560Z,67.04
2023-05-08T06:16:03.594Z,66.24
2023-05-08T06:17:03.732Z,66.41
2023-05-08T06:18:03.885Z,66.83
2023-05-08T06:19:03.768Z,66.01
2023-05-08T06:20:03.778Z,65.71
2023-05-08T06:21:03.849Z,65.71
2023-05-08T06:22:03.873Z,66.18
2023-05-08T06:23:03.906Z,65.78
2023-05-08T06:24:03.905Z,65.55
2023-05-08T06:25:03.924Z,66.15
2023-05-08T06:26:03.927Z,64.93
2023-05-08T06:27:04.021Z,65.68
2023-05-08T06:28:03.989Z,65.62
2023-05-08T06:29:04.001Z,65.53
2023-05-08T06:30:04.056Z,65.67
2023-05-08T06:31:04.110Z,65.65
2023-05-08T06:32:04.124Z,64.88
2023-05-08T06:33:04.169Z,65.01
2023-05-08T06:34:04.442Z,64.83
2023-05-08T06:35:04.233Z,64.87
2023-05-08T06:36:04.188Z,64.81
2023-05-08T06:37:04.200Z,64.76
2023-05-08T06:38:04.788Z,64.87
2023-05-08T06:39:04.248Z,65.02
2023-05-08T06:40:12.029Z,65.86
2023-05-08T06:41:05.246Z,66.68
2023-05-08T06:42:04.279Z,66.67
2023-05-08T06:43:04.242Z,66.65
2023-05-08T06:44:05.287Z,66.26
2023-05-08T06:45:04.255Z,67.01
2023-05-08T06:46:04.295Z,66.27
2023-05-08T06:47:04.215Z,66.53
2023-05-08T06:48:04.275Z,65.91
2023-05-08T06:49:04.212Z,66.48
2023-05-08T06:50:04.249Z,66.97
2023-05-08T06:51:04.184Z,66.14
2023-05-08T06:52:04.253Z,66.52
2023-05-08T06:53:04.302Z,67.02
2023-05-08T06:54:04.359Z,66.93
2023-05-08T06:55:04.274Z,67.68
2023-05-08T06:56:04.200Z,67.95
2023-05-08T06:57:04.158Z,66.26
2023-05-08T06:58:04.176Z,67.35
2023-05-08T06:59:08.606Z,66.52
2023-05-08T07:00:05.205Z,66.83
2023-05-08T07:01:04.247Z,66.55
2023-05-08T07:02:04.200Z,65.94
2023-05-08T07:03:04.308Z,65.57
2023-05-08T07:04:04.158Z,65.96
2023-05-08T07:05:04.294Z,65.87
2023-05-08T07:06:04.193Z,65.13
2023-05-08T07:07:04.139Z,65.00
2023-05-08T07:08:04.131Z,65.37
2023-05-08T07:09:04.121Z,65.57
2023-05-08T07:10:05.911Z,65.62
2023-05-08T07:11:04.106Z,67.31
2023-05-08T07:12:04.080Z,65.18
2023-05-08T07:13:04.128Z,65.39
2023-05-08T07:14:04.070Z,64.89
2023-05-08T07:15:13.807Z,65.58
2023-05-08T07:16:05.088Z,66.09
2023-05-08T07:17:04.061Z,65.98
2023-05-08T07:18:04.101Z,65.63
2023-05-08T07:19:04.034Z,65.57
2023-05-08T07:20:04.039Z,65.66
2023-05-08T07:21:03.988Z,66.09
2023-05-08T07:22:04.103Z,66.15
2023-05-08T07:23:04.022Z,65.43
2023-05-08T07:24:03.989Z,64.96
2023-05-08T07:25:03.977Z,65.35
2023-05-08T07:26:03.974Z,65.70
2023-05-08T07:27:04.005Z,66.26
2023-05-08T07:28:03.976Z,65.57
2023-05-08T07:29:03.996Z,66.12
2023-05-08T07:30:04.054Z,65.88
2023-05-08T07:31:04.056Z,65.82
2023-05-08T07:32:04.238Z,65.93
2023-05-08T07:33:04.195Z,66.19
2023-05-08T07:34:04.302Z,65.58
2023-05-08T07:35:04.249Z,66.26
2023-05-08T07:36:04.216Z,66.40
2023-05-08T07:37:04.257Z,65.71
2023-05-08T07:38:04.766Z,65.27
2023-05-08T07:39:04.311Z,65.11
2023-05-08T07:40:04.340Z,65.23
2023-05-08T07:41:04.531Z,65.06
2023-05-08T07:42:06.309Z,65.02
2023-05-08T07:43:04.755Z,64.75
2023-05-08T07:44:04.427Z,65.24
2023-05-08T07:45:05.256Z,65.35
2023-05-08T07:46:07.269Z,65.19
2023-05-08T07:47:05.282Z,65.23
2023-05-08T07:48:04.523Z,64.59
2023-05-08T07:49:05.235Z,64.97
2023-05-08T07:50:04.527Z,64.92
2023-05-08T07:51:04.530Z,64.67
2023-05-08T07:52:04.702Z,64.44
2023-05-08T07:53:04.465Z,64.29
2023-05-08T07:54:07.273Z,64.86
2023-05-08T07:55:04.830Z,64.23
2023-05-08T07:56:04.430Z,64.30
2023-05-08T07:57:04.400Z,65.09
2023-05-08T07:58:04.409Z,64.92
2023-05-08T07:59:04.449Z,65.17
2023-05-08T08:00:04.407Z,65.89
2023-05-08T08:01:04.416Z,65.13
2023-05-08T08:02:04.449Z,66.13
2023-05-08T08:03:04.458Z,64.87
2023-05-08T08:04:04.400Z,65.06
2023-05-08T08:05:04.477Z,65.87
2023-05-08T08:06:04.366Z,65.44
2023-05-08T08:07:04.320Z,64.79
2023-05-08T08:08:04.351Z,64.40
2023-05-08T08:09:04.328Z,63.86
2023-05-08T08:10:04.489Z,64.38
2023-05-08T08:11:04.296Z,63.83
2023-05-08T08:12:04.333Z,62.90
2023-05-08T08:13:04.358Z,64.01
2023-05-08T08:14:04.322Z,63.59
2023-05-08T08:15:04.309Z,62.92
2023-05-08T08:16:04.293Z,62.55
2023-05-08T08:17:04.329Z,62.71
2023-05-08T08:18:04.277Z,63.01
2023-05-08T08:19:04.821Z,62.85
2023-05-08T08:20:04.263Z,61.52
2023-05-08T08:21:04.300Z,61.45
2023-05-08T08:22:04.315Z,61.81
2023-05-08T08:23:04.212Z,61.76
2023-05-08T08:24:04.260Z,62.37
2023-05-08T08:25:04.289Z,63.28
2023-05-08T08:26:04.191Z,62.36
2023-05-08T08:27:04.192Z,62.13
2023-05-08T08:28:04.252Z,63.48
2023-05-08T08:29:04.265Z,63.26
2023-05-08T08:30:15.611Z,61.41
2023-05-08T08:31:05.205Z,61.61
2023-05-08T08:32:04.271Z,60.85
2023-05-08T08:33:04.323Z,61.04
2023-05-08T08:34:04.186Z,61.05
2023-05-08T08:35:04.137Z,61.13
2023-05-08T08:36:04.112Z,60.02
2023-05-08T08:37:04.205Z,60.46
2023-05-08T08:38:04.144Z,59.96
2023-05-08T08:39:04.129Z,61.16
2023-05-08T08:40:04.119Z,59.33
2023-05-08T08:41:04.192Z,58.81
2023-05-08T08:42:04.274Z,58.40
2023-05-08T08:43:04.770Z,58.71
2023-05-08T08:44:04.278Z,59.99
2023-05-08T08:45:04.384Z,59.16
2023-05-08T08:46:04.399Z,59.37
2023-05-08T08:47:04.414Z,58.94
2023-05-08T08:48:04.560Z,57.91
2023-05-08T08:49:04.609Z,58.35
2023-05-08T08:50:04.740Z,57.88
2023-05-08T08:51:04.535Z,57.57
2023-05-08T08:52:04.552Z,58.19
2023-05-08T08:53:04.682Z,57.85
2023-05-08T08:54:04.662Z,57.28
2023-05-08T08:55:04.616Z,57.89
2023-05-08T08:56:04.633Z,57.09
2023-05-08T08:57:04.786Z,56.95
2023-05-08T08:58:04.768Z,56.18
2023-05-08T08:59:04.706Z,56.92
2023-05-08T09:00:04.761Z,55.58
2023-05-08T09:01:04.770Z,55.59
2023-05-08T09:02:04.808Z,55.69
2023-05-08T09:03:04.940Z,55.09
2023-05-08T09:04:04.896Z,54.94
2023-05-08T09:05:04.886Z,55.07
2023-05-08T09:06:04.864Z,54.69
2023-05-08T09:07:04.882Z,54.15
2023-05-08T09:08:04.904Z,54.03
2023-05-08T09:09:04.985Z,54.12
2023-05-08T09:10:04.897Z,54.03
2023-05-08T09:11:05.309Z,53.84
2023-05-08T09:12:05.814Z,53.98
2023-05-08T09:13:05.025Z,55.02
2023-05-08T09:14:04.951Z,54.79
2023-05-08T09:15:05.065Z,54.40
2023-05-08T09:16:05.000Z,54.42
2023-05-08T09:17:04.966Z,54.08
2023-05-08T09:18:05.127Z,53.99
2023-05-08T09:19:05.105Z,53.73
2023-05-08T09:20:05.096Z,53.40
2023-05-08T09:21:05.136Z,54.00
2023-05-08T09:22:05.286Z,53.78
2023-05-08T09:23:05.265Z,53.89
2023-05-08T09:24:05.324Z,53.56
2023-05-08T09:25:05.415Z,53.63
2023-05-08T09:26:05.400Z,53.75
2023-05-08T09:27:05.451Z,53.19
2023-05-08T09:28:05.526Z,52.68
2023-05-08T09:29:05.529Z,52.77
2023-05-08T09:30:05.597Z,53.28
2023-05-08T09:31:05.631Z,53.41
2023-05-08T09:32:05.771Z,53.15
2023-05-08T09:33:05.972Z,53.13
2023-05-08T09:34:05.784Z,53.41
2023-05-08T09:35:05.882Z,53.29
2023-05-08T09:36:06.265Z,53.34
2023-05-08T09:37:06.048Z,53.65
2023-05-08T09:38:05.953Z,52.95
2023-05-08T09:39:06.058Z,51.68
2023-05-08T09:40:06.864Z,50.99
2023-05-08T09:41:06.208Z,51.52
2023-05-08T09:42:06.140Z,51.43
2023-05-08T09:43:06.398Z,52.18
2023-05-08T09:44:06.803Z,51.50
2023-05-08T09:45:06.197Z,51.35
2023-05-08T09:46:06.220Z,50.98
2023-05-08T09:47:06.206Z,50.07
2023-05-08T09:48:06.258Z,50.12
2023-05-08T09:49:06.248Z,49.72
2023-05-08T09:50:06.339Z,49.93
2023-05-08T09:51:06.415Z,49.35
2023-05-08T09:52:08.512Z,48.79
2023-05-08T09:53:06.794Z,48.71
2023-05-08T09:54:08.324Z,48.76
2023-05-08T09:55:06.756Z,49.34
2023-05-08T09:56:09.397Z,49.63
2023-05-08T09:57:06.632Z,49.04
2023-05-08T09:58:06.796Z,48.87
2023-05-08T09:59:06.663Z,48.55
2023-05-08T10:00:06.654Z,49.00
2023-05-08T10:01:06.661Z,48.67
2023-05-08T10:02:07.314Z,47.72
2023-05-08T10:03:06.660Z,48.04
2023-05-08T10:04:06.772Z,47.74
2023-05-08T10:05:06.647Z,48.20
2023-05-08T10:06:06.575Z,48.24
2023-05-08T10:07:06.556Z,47.45
2023-05-08T10:08:06.535Z,47.72
2023-05-08T10:09:06.550Z,48.35
2023-05-08T10:10:06.721Z,48.11
2023-05-08T10:11:06.581Z,47.98
2023-05-08T10:12:06.595Z,47.93
2023-05-08T10:13:06.750Z,47.85
2023-05-08T10:14:06.508Z,47.47
2023-05-08T10:15:06.504Z,47.62
2023-05-08T10:16:06.535Z,46.46
2023-05-08T10:17:06.560Z,46.93
2023-05-08T10:18:06.604Z,47.31
2023-05-08T10:19:06.459Z,48.10
2023-05-08T10:20:06.496Z,48.05
2023-05-08T10:21:06.470Z,48.29
2023-05-08T10:22:06.471Z,48.88
2023-05-08T10:23:06.436Z,48.42
2023-05-08T10:24:06.594Z,49.72
2023-05-08T10:25:06.448Z,49.31
2023-05-08T10:26:06.440Z,49.10
2023-05-08T10:27:07.888Z,48.36
2023-05-08T10:28:06.552Z,47.80
2023-05-08T10:29:06.405Z,47.18
2023-05-08T10:30:06.408Z,47.07
2023-05-08T10:31:07.357Z,46.91
2023-05-08T10:32:06.400Z,46.74
2023-05-08T10:33:06.570Z,46.24
2023-05-08T10:34:06.472Z,45.48
2023-05-08T10:35:06.454Z,45.32
2023-05-08T10:36:06.376Z,45.75
2023-05-08T10:37:06.367Z,45.21
2023-05-08T10:38:06.403Z,44.33
2023-05-08T10:39:06.359Z,45.24
2023-05-08T10:40:06.447Z,45.79
2023-05-08T10:41:06.388Z,46.03
2023-05-08T10:42:06.420Z,46.46
2023-05-08T10:43:06.419Z,45.92
2023-05-08T10:44:06.386Z,45.81
2023-05-08T10:45:06.339Z,44.42
2023-05-08T10:46:06.455Z,44.10
2023-05-08T10:47:06.428Z,43.80
2023-05-08T10:48:06.415Z,43.56
2023-05-08T10:49:06.314Z,42.73
2023-05-08T10:50:06.322Z,42.88
2023-05-08T10:51:06.346Z,42.20
2023-05-08T10:52:06.313Z,42.83
2023-05-08T10:53:06.452Z,44.04
2023-05-08T10:54:06.525Z,44.26
2023-05-08T10:55:06.480Z,44.36
2023-05-08T10:56:06.490Z,42.93
2023-05-08T10:57:06.509Z,42.79
2023-05-08T10:58:06.953Z,42.59
2023-05-08T10:59:06.654Z,42.38
2023-05-08T11:00:06.722Z,42.19
2023-05-08T11:01:07.713Z,39.90
2023-05-08T11:02:06.825Z,41.23
2023-05-08T11:03:14.158Z,40.48
2023-05-08T11:04:08.419Z,40.66
2023-05-08T11:05:06.767Z,42.72
2023-05-08T11:06:06.731Z,41.28
2023-05-08T11:07:06.799Z,41.81
2023-05-08T11:08:06.758Z,41.28
2023-05-08T11:09:06.781Z,41.08
2023-05-08T11:10:07.324Z,41.53
2023-05-08T11:11:07.317Z,42.55
2023-05-08T11:12:06.772Z,42.87
2023-05-08T11:13:07.437Z,43.39
2023-05-08T11:14:06.799Z,42.88
2023-05-08T11:15:06.908Z,40.83
2023-05-08T11:16:06.879Z,39.38
2023-05-08T11:17:06.933Z,40.90
2023-05-08T11:18:07.025Z,39.76
2023-05-08T11:19:06.955Z,39.98
2023-05-08T11:20:07.320Z,39.88
2023-05-08T11:21:07.318Z,40.05
2023-05-08T11:22:07.937Z,40.44
2023-05-08T11:23:07.032Z,39.57
2023-05-08T11:24:08.006Z,38.97
2023-05-08T11:25:07.897Z,39.05
2023-05-08T11:26:07.221Z,39.55
2023-05-08T11:27:07.180Z,38.80
2023-05-08T11:28:07.281Z,39.33
2023-05-08T11:29:07.224Z,39.88
2023-05-08T11:30:07.278Z,40.01
2023-05-08T11:31:07.352Z,40.01
2023-05-08T11:32:07.374Z,40.23
2023-05-08T11:33:07.417Z,39.64
2023-05-08T11:34:07.393Z,38.81
2023-05-08T11:35:07.425Z,38.80
2023-05-08T11:36:07.467Z,38.78
2023-05-08T11:37:07.467Z,38.92
2023-05-08T11:38:07.484Z,38.65
2023-05-08T11:39:07.493Z,38.75
2023-05-08T11:40:07.560Z,37.75
2023-05-08T11:41:07.571Z,37.89
2023-05-08T11:42:07.628Z,38.80
2023-05-08T11:43:08.437Z,38.84
2023-05-08T11:44:07.673Z,39.07
2023-05-08T11:45:07.748Z,38.06
2023-05-08T11:46:07.747Z,37.74
2023-05-08T11:47:07.932Z,37.97
2023-05-08T11:48:07.857Z,38.19
2023-05-08T11:49:07.831Z,37.67
2023-05-08T11:50:07.921Z,38.06
2023-05-08T11:51:07.892Z,38.81
2023-05-08T11:52:07.939Z,38.38
2023-05-08T11:53:08.058Z,37.84
2023-05-08T11:54:08.044Z,37.73
2023-05-08T11:55:08.015Z,37.13
2023-05-08T11:56:08.062Z,37.11
2023-05-08T11:57:08.087Z,37.69
2023-05-08T11:58:08.100Z,37.11
2023-05-08T11:59:08.202Z,36.88
2023-05-08T12:00:08.166Z,36.86
2023-05-08T12:01:08.306Z,37.39
2023-05-08T12:02:09.515Z,38.19
2023-05-08T12:03:08.381Z,39.35
2023-05-08T12:04:08.597Z,39.75
2023-05-08T12:05:08.460Z,39.50
2023-05-08T12:06:08.350Z,39.61
2023-05-08T12:07:08.452Z,38.71
2023-05-08T12:08:08.444Z,38.18
2023-05-08T12:09:08.493Z,38.01
2023-05-08T12:10:08.526Z,37.79
2023-05-08T12:11:08.567Z,37.16
2023-05-08T12:12:08.593Z,37.32
2023-05-08T12:13:08.667Z,37.64
2023-05-08T12:14:08.769Z,37.07
2023-05-08T12:15:08.668Z,36.80
2023-05-08T12:16:08.661Z,36.71
2023-05-08T12:17:08.798Z,36.83
2023-05-08T12:18:08.784Z,36.29
2023-05-08T12:19:08.768Z,36.25
2023-05-08T12:20:08.844Z,36.21
2023-05-08T12:21:08.856Z,37.12
2023-05-08T12:22:08.902Z,36.36
2023-05-08T12:23:08.894Z,36.07
2023-05-08T12:24:08.916Z,36.45
2023-05-08T12:25:09.926Z,35.65
2023-05-08T12:26:09.922Z,35.66
2023-05-08T12:27:09.107Z,35.36
2023-05-08T12:28:08.995Z,35.82
2023-05-08T12:29:09.038Z,35.24
2023-05-08T12:30:09.063Z,35.47
2023-05-08T12:31:09.200Z,35.55
2023-05-08T12:32:09.109Z,35.30
2023-05-08T12:33:09.231Z,35.13
2023-05-08T12:34:09.184Z,35.02
2023-05-08T12:35:09.194Z,34.58
2023-05-08T12:36:09.196Z,34.81
2023-05-08T12:37:09.231Z,34.96
2023-05-08T12:38:09.285Z,34.66
2023-05-08T12:39:09.301Z,34.64
2023-05-08T12:40:09.324Z,33.20
2023-05-08T12:41:09.382Z,33.48
2023-05-08T12:42:09.408Z,34.05
2023-05-08T12:43:09.459Z,34.07
2023-05-08T12:44:09.493Z,34.01
2023-05-08T12:45:09.611Z,33.98
2023-05-08T12:46:09.597Z,32.49
2023-05-08T12:47:09.610Z,32.48
2023-05-08T12:48:09.680Z,31.93
2023-05-08T12:49:09.632Z,32.18
2023-05-08T12:50:09.821Z,31.87
2023-05-08T12:51:09.808Z,31.91
2023-05-08T12:52:09.899Z,31.29
2023-05-08T12:53:09.879Z,30.38